sensor_id;sensor_type;location;lat;lon;timestamp;P1;durP1;ratioP1;P2;durP2;ratioP2
20623;SDS011;10471;42.736;23.346;2023-05-10T00:00:32;9.40;;;7.53;;
20623;SDS011;10471;42.736;23.346;2023-05-10T00:02:57;8.17;;;6.60;;
20623;SDS011;10471;42.736;23.346;2023-05-10T00:05:23;7.57;;;6.60;;
20623;SDS011;10471;42.736;23.346;2023-05-10T00:07:48;9.73;;;7.57;;
20623;SDS011;10471;42.736;23.346;2023-05-10T00:10:13;12.20;;;6.80;;
20623;SDS011;10471;42.736;23.346;2023-05-10T00:12:39;8.67;;;6.60;;
20623;SDS011;10471;42.736;23.346;2023-05-10T00:15:04;9.03;;;6.47;;
20623;SDS011;10471;42.736;23.346;2023-05-10T00:17:30;10.33;;;6.30;;
20623;SDS011;10471;42.736;23.346;2023-05-10T00:19:56;7.33;;;6.07;;
20623;SDS011;10471;42.736;23.346;2023-05-10T00:22:21;7.60;;;6.07;;
20623;SDS011;10471;42.736;23.346;2023-05-10T00:24:47;7.13;;;5.50;;
20623;SDS011;10471;42.736;23.346;2023-05-10T00:27:12;7.00;;;5.60;;
20623;SDS011;10471;42.736;23.346;2023-05-10T00:29:37;6.97;;;5.80;;
20623;SDS011;10471;42.736;23.346;2023-05-10T00:32:03;8.93;;;7.10;;
20623;SDS011;10471;42.736;23.346;2023-05-10T00:34:28;8.23;;;7.03;;
20623;SDS011;10471;42.736;23.346;2023-05-10T00:36:54;9.47;;;8.03;;
20623;SDS011;10471;42.736;23.346;2023-05-10T00:39:19;13.37;;;8.30;;
20623;SDS011;10471;42.736;23.346;2023-05-10T00:41:45;11.67;;;9.43;;
20623;SDS011;10471;42.736;23.346;2023-05-10T00:44:10;11.57;;;9.13;;
20623;SDS011;10471;42.736;23.346;2023-05-10T00:46:36;13.20;;;9.60;;
20623;SDS011;10471;42.736;23.346;2023-05-10T00:49:01;11.90;;;9.57;;
20623;SDS011;10471;42.736;23.346;2023-05-10T00:51:27;14.97;;;10.83;;
20623;SDS011;10471;42.736;23.346;2023-05-10T00:53:53;14.43;;;11.10;;
20623;SDS011;10471;42.736;23.346;2023-05-10T00:56:18;14.93;;;11.33;;
20623;SDS011;10471;42.736;23.346;2023-05-10T00:58:47;13.77;;;10.97;;
20623;SDS011;10471;42.736;23.346;2023-05-10T01:01:13;14.80;;;11.77;;
20623;SDS011;10471;42.736;23.346;2023-05-10T01:03:39;14.77;;;11.90;;
20623;SDS011;10471;42.736;23.346;2023-05-10T01:06:04;14.30;;;12.20;;
20623;SDS011;10471;42.736;23.346;2023-05-10T01:08:30;16.23;;;12.60;;
20623;SDS011;10471;42.736;23.346;2023-05-10T01:10:56;15.83;;;13.00;;
20623;SDS011;10471;42.736;23.346;2023-05-10T01:13:29;14.90;;;12.87;;
20623;SDS011;10471;42.736;23.346;2023-05-10T01:16:01;17.87;;;14.63;;
20623;SDS011;10471;42.736;23.346;2023-05-10T01:18:30;17.10;;;14.00;;
20623;SDS011;10471;42.736;23.346;2023-05-10T01:23:43;24.03;;;15.97;;
20623;SDS011;10471;42.736;23.346;2023-05-10T01:26:27;17.47;;;13.90;;
20623;SDS011;10471;42.736;23.346;2023-05-10T01:29:13;17.50;;;14.83;;
20623;SDS011;10471;42.736;23.346;2023-05-10T01:35:10;19.70;;;14.37;;
20623;SDS011;10471;42.736;23.346;2023-05-10T01:37:56;15.83;;;13.13;;
20623;SDS011;10471;42.736;23.346;2023-05-10T01:40:40;16.33;;;13.60;;
20623;SDS011;10471;42.736;23.346;2023-05-10T01:43:17;16.73;;;12.50;;
20623;SDS011;10471;42.736;23.346;2023-05-10T01:45:54;14.23;;;12.20;;
20623;SDS011;10471;42.736;23.346;2023-05-10T01:48:29;13.03;;;11.73;;
20623;SDS011;10471;42.736;23.346;2023-05-10T01:50:56;14.93;;;12.13;;
20623;SDS011;10471;42.736;23.346;2023-05-10T01:53:23;14.03;;;11.67;;
20623;SDS011;10471;42.736;23.346;2023-05-10T01:55:52;14.50;;;12.23;;
20623;SDS011;10471;42.736;23.346;2023-05-10T01:58:27;13.63;;;11.57;;
20623;SDS011;10471;42.736;23.346;2023-05-10T02:00:55;13.57;;;11.77;;
20623;SDS011;10471;42.736;23.346;2023-05-10T02:03:24;13.47;;;11.33;;
20623;SDS011;10471;42.736;23.346;2023-05-10T02:05:52;12.37;;;11.03;;
20623;SDS011;10471;42.736;23.346;2023-05-10T02:08:19;12.33;;;10.37;;
20623;SDS011;10471;42.736;23.346;2023-05-10T02:10:46;13.17;;;10.37;;
20623;SDS011;10471;42.736;23.346;2023-05-10T02:13:14;12.80;;;10.17;;
20623;SDS011;10471;42.736;23.346;2023-05-10T02:15:41;10.60;;;9.17;;
20623;SDS011;10471;42.736;23.346;2023-05-10T02:18:08;10.67;;;9.57;;
20623;SDS011;10471;42.736;23.346;2023-05-10T02:20:35;13.50;;;10.37;;
20623;SDS011;10471;42.736;23.346;2023-05-10T02:23:02;11.60;;;10.00;;
20623;SDS011;10471;42.736;23.346;2023-05-10T02:25:29;11.20;;;10.00;;
20623;SDS011;10471;42.736;23.346;2023-05-10T02:27:56;10.83;;;9.73;;
20623;SDS011;10471;42.736;23.346;2023-05-10T02:30:23;11.33;;;9.80;;
20623;SDS011;10471;42.736;23.346;2023-05-10T02:32:50;10.13;;;9.03;;
20623;SDS011;10471;42.736;23.346;2023-05-10T02:35:16;10.87;;;9.03;;
20623;SDS011;10471;42.736;23.346;2023-05-10T02:37:42;9.20;;;8.30;;
20623;SDS011;10471;42.736;23.346;2023-05-10T02:40:09;10.60;;;9.43;;
20623;SDS011;10471;42.736;23.346;2023-05-10T02:42:36;12.47;;;9.53;;
20623;SDS011;10471;42.736;23.346;2023-05-10T02:45:13;11.47;;;9.57;;
20623;SDS011;10471;42.736;23.346;2023-05-10T02:47:49;11.90;;;8.47;;
20623;SDS011;10471;42.736;23.346;2023-05-10T02:50:15;11.97;;;7.97;;
20623;SDS011;10471;42.736;23.346;2023-05-10T02:52:47;35.53;;;15.47;;
20623;SDS011;10471;42.736;23.346;2023-05-10T02:55:16;8.73;;;7.20;;
20623;SDS011;10471;42.736;23.346;2023-05-10T02:57:48;8.50;;;6.63;;
20623;SDS011;10471;42.736;23.346;2023-05-10T03:00:17;7.90;;;6.07;;
20623;SDS011;10471;42.736;23.346;2023-05-10T03:02:43;8.40;;;6.67;;
20623;SDS011;10471;42.736;23.346;2023-05-10T03:05:08;9.30;;;7.00;;
20623;SDS011;10471;42.736;23.346;2023-05-10T03:07:34;9.73;;;7.10;;
20623;SDS011;10471;42.736;23.346;2023-05-10T03:10:00;10.90;;;7.23;;
20623;SDS011;10471;42.736;23.346;2023-05-10T03:20:57;11.90;;;7.77;;
20623;SDS011;10471;42.736;23.346;2023-05-10T03:23:34;11.47;;;7.97;;
20623;SDS011;10471;42.736;23.346;2023-05-10T03:26:05;8.60;;;7.20;;
20623;SDS011;10471;42.736;23.346;2023-05-10T03:28:32;11.93;;;7.53;;
20623;SDS011;10471;42.736;23.346;2023-05-10T03:31:02;9.43;;;7.33;;
20623;SDS011;10471;42.736;23.346;2023-05-10T03:33:29;9.33;;;7.70;;
20623;SDS011;10471;42.736;23.346;2023-05-10T03:35:55;9.80;;;7.07;;
20623;SDS011;10471;42.736;23.346;2023-05-10T03:38:20;9.77;;;7.47;;
20623;SDS011;10471;42.736;23.346;2023-05-10T03:40:46;10.20;;;6.80;;
20623;SDS011;10471;42.736;23.346;2023-05-10T03:43:11;8.77;;;6.80;;
20623;SDS011;10471;42.736;23.346;2023-05-10T03:45:36;7.23;;;6.43;;
20623;SDS011;10471;42.736;23.346;2023-05-10T03:48:02;11.07;;;6.63;;
20623;SDS011;10471;42.736;23.346;2023-05-10T03:50:27;8.43;;;6.73;;
20623;SDS011;10471;42.736;23.346;2023-05-10T03:52:53;8.10;;;6.77;;
20623;SDS011;10471;42.736;23.346;2023-05-10T03:55:18;9.83;;;6.80;;
20623;SDS011;10471;42.736;23.346;2023-05-10T03:57:43;10.03;;;6.33;;
20623;SDS011;10471;42.736;23.346;2023-05-10T04:00:09;9.00;;;6.57;;
20623;SDS011;10471;42.736;23.346;2023-05-10T04:02:35;7.70;;;6.50;;
20623;SDS011;10471;42.736;23.346;2023-05-10T04:05:00;8.30;;;6.53;;
20623;SDS011;10471;42.736;23.346;2023-05-10T04:07:26;9.53;;;6.30;;
20623;SDS011;10471;42.736;23.346;2023-05-10T04:09:51;7.93;;;6.03;;
20623;SDS011;10471;42.736;23.346;2023-05-10T04:12:17;8.53;;;5.87;;
20623;SDS011;10471;42.736;23.346;2023-05-10T04:14:42;7.57;;;5.80;;
20623;SDS011;10471;42.736;23.346;2023-05-10T04:17:08;9.17;;;5.67;;
20623;SDS011;10471;42.736;23.346;2023-05-10T04:19:33;10.17;;;5.80;;
20623;SDS011;10471;42.736;23.346;2023-05-10T04:21:58;10.27;;;6.30;;
20623;SDS011;10471;42.736;23.346;2023-05-10T04:24:24;8.23;;;6.20;;
20623;SDS011;10471;42.736;23.346;2023-05-10T04:26:50;7.03;;;5.23;;
20623;SDS011;10471;42.736;23.346;2023-05-10T04:29:16;7.47;;;5.77;;
20623;SDS011;10471;42.736;23.346;2023-05-10T04:31:41;6.83;;;5.60;;
20623;SDS011;10471;42.736;23.346;2023-05-10T04:34:07;6.20;;;5.60;;
20623;SDS011;10471;42.736;23.346;2023-05-10T04:36:32;7.43;;;5.80;;
20623;SDS011;10471;42.736;23.346;2023-05-10T04:39:00;10.07;;;6.23;;
20623;SDS011;10471;42.736;23.346;2023-05-10T04:41:25;9.30;;;5.80;;
20623;SDS011;10471;42.736;23.346;2023-05-10T04:43:51;8.20;;;6.30;;
20623;SDS011;10471;42.736;23.346;2023-05-10T04:46:16;8.97;;;6.33;;
20623;SDS011;10471;42.736;23.346;2023-05-10T04:48:42;8.70;;;6.20;;
20623;SDS011;10471;42.736;23.346;2023-05-10T04:51:07;10.03;;;6.90;;
20623;SDS011;10471;42.736;23.346;2023-05-10T04:53:32;10.37;;;6.20;;
20623;SDS011;10471;42.736;23.346;2023-05-10T04:55:58;7.80;;;6.20;;
20623;SDS011;10471;42.736;23.346;2023-05-10T04:58:23;8.10;;;6.63;;
20623;SDS011;10471;42.736;23.346;2023-05-10T05:00:49;9.70;;;6.83;;
20623;SDS011;10471;42.736;23.346;2023-05-10T05:03:14;9.87;;;6.60;;
20623;SDS011;10471;42.736;23.346;2023-05-10T05:05:40;9.87;;;7.07;;
20623;SDS011;10471;42.736;23.346;2023-05-10T05:08:05;10.87;;;7.10;;
20623;SDS011;10471;42.736;23.346;2023-05-10T05:10:30;11.77;;;7.60;;
20623;SDS011;10471;42.736;23.346;2023-05-10T05:12:56;9.07;;;6.53;;
20623;SDS011;10471;42.736;23.346;2023-05-10T05:15:21;8.97;;;7.17;;
20623;SDS011;10471;42.736;23.346;2023-05-10T05:17:47;10.07;;;6.87;;
20623;SDS011;10471;42.736;23.346;2023-05-10T05:20:12;9.17;;;6.87;;
20623;SDS011;10471;42.736;23.346;2023-05-10T05:22:38;10.63;;;7.13;;
20623;SDS011;10471;42.736;23.346;2023-05-10T05:25:03;9.63;;;7.03;;
20623;SDS011;10471;42.736;23.346;2023-05-10T05:27:29;10.27;;;6.70;;
20623;SDS011;10471;42.736;23.346;2023-05-10T05:29:55;8.97;;;7.40;;
20623;SDS011;10471;42.736;23.346;2023-05-10T05:32:21;9.63;;;7.57;;
20623;SDS011;10471;42.736;23.346;2023-05-10T05:34:47;9.30;;;7.40;;
20623;SDS011;10471;42.736;23.346;2023-05-10T05:37:20;8.53;;;7.60;;
20623;SDS011;10471;42.736;23.346;2023-05-10T05:39:49;10.10;;;7.77;;
20623;SDS011;10471;42.736;23.346;2023-05-10T05:42:15;9.30;;;7.03;;
20623;SDS011;10471;42.736;23.346;2023-05-10T05:44:42;9.60;;;8.00;;
20623;SDS011;10471;42.736;23.346;2023-05-10T05:47:08;13.40;;;7.53;;
20623;SDS011;10471;42.736;23.346;2023-05-10T05:49:34;12.03;;;7.80;;
20623;SDS011;10471;42.736;23.346;2023-05-10T05:52:00;10.03;;;7.53;;
20623;SDS011;10471;42.736;23.346;2023-05-10T05:54:29;9.30;;;7.07;;
20623;SDS011;10471;42.736;23.346;2023-05-10T05:56:57;9.17;;;7.20;;
20623;SDS011;10471;42.736;23.346;2023-05-10T05:59:23;8.57;;;7.03;;
20623;SDS011;10471;42.736;23.346;2023-05-10T06:01:49;9.43;;;6.73;;
20623;SDS011;10471;42.736;23.346;2023-05-10T06:04:14;8.33;;;7.03;;
20623;SDS011;10471;42.736;23.346;2023-05-10T06:06:40;10.00;;;7.17;;
20623;SDS011;10471;42.736;23.346;2023-05-10T06:09:05;12.37;;;7.13;;
20623;SDS011;10471;42.736;23.346;2023-05-10T06:11:31;11.07;;;6.60;;
20623;SDS011;10471;42.736;23.346;2023-05-10T06:13:57;9.20;;;6.70;;
20623;SDS011;10471;42.736;23.346;2023-05-10T06:16:23;10.70;;;6.67;;
20623;SDS011;10471;42.736;23.346;2023-05-10T06:18:49;9.47;;;6.83;;
20623;SDS011;10471;42.736;23.346;2023-05-10T06:21:14;9.20;;;6.70;;
20623;SDS011;10471;42.736;23.346;2023-05-10T06:23:41;10.87;;;6.47;;
20623;SDS011;10471;42.736;23.346;2023-05-10T06:26:06;10.30;;;6.73;;
20623;SDS011;10471;42.736;23.346;2023-05-10T06:28:32;10.27;;;6.17;;
20623;SDS011;10471;42.736;23.346;2023-05-10T06:30:58;8.07;;;6.60;;
20623;SDS011;10471;42.736;23.346;2023-05-10T06:33:24;9.10;;;7.00;;
20623;SDS011;10471;42.736;23.346;2023-05-10T06:35:49;7.57;;;6.23;;
20623;SDS011;10471;42.736;23.346;2023-05-10T06:38:14;12.37;;;6.37;;
20623;SDS011;10471;42.736;23.346;2023-05-10T06:40:43;9.30;;;6.63;;
20623;SDS011;10471;42.736;23.346;2023-05-10T06:43:09;8.93;;;6.57;;
20623;SDS011;10471;42.736;23.346;2023-05-10T06:45:35;11.40;;;6.20;;
20623;SDS011;10471;42.736;23.346;2023-05-10T06:48:00;8.27;;;6.03;;
20623;SDS011;10471;42.736;23.346;2023-05-10T06:50:26;8.30;;;5.80;;
20623;SDS011;10471;42.736;23.346;2023-05-10T06:52:51;7.10;;;5.87;;
20623;SDS011;10471;42.736;23.346;2023-05-10T06:55:16;9.47;;;6.30;;
20623;SDS011;10471;42.736;23.346;2023-05-10T06:57:42;11.60;;;6.60;;
20623;SDS011;10471;42.736;23.346;2023-05-10T07:00:07;8.93;;;6.17;;
20623;SDS011;10471;42.736;23.346;2023-05-10T07:02:34;9.33;;;6.00;;
20623;SDS011;10471;42.736;23.346;2023-05-10T07:05:00;6.60;;;5.87;;
20623;SDS011;10471;42.736;23.346;2023-05-10T07:07:25;9.53;;;5.93;;
20623;SDS011;10471;42.736;23.346;2023-05-10T07:09:51;7.43;;;5.50;;
20623;SDS011;10471;42.736;23.346;2023-05-10T07:12:16;7.90;;;5.90;;
20623;SDS011;10471;42.736;23.346;2023-05-10T07:14:42;12.87;;;6.27;;
20623;SDS011;10471;42.736;23.346;2023-05-10T07:17:07;10.50;;;5.90;;
20623;SDS011;10471;42.736;23.346;2023-05-10T07:19:33;7.20;;;6.10;;
20623;SDS011;10471;42.736;23.346;2023-05-10T07:21:58;7.57;;;6.07;;
20623;SDS011;10471;42.736;23.346;2023-05-10T07:24:24;9.10;;;6.37;;
20623;SDS011;10471;42.736;23.346;2023-05-10T07:26:50;8.93;;;6.00;;
20623;SDS011;10471;42.736;23.346;2023-05-10T07:29:15;9.47;;;6.63;;
20623;SDS011;10471;42.736;23.346;2023-05-10T07:31:41;7.60;;;6.03;;
20623;SDS011;10471;42.736;23.346;2023-05-10T07:34:07;11.03;;;6.53;;
20623;SDS011;10471;42.736;23.346;2023-05-10T07:36:33;10.00;;;6.00;;
20623;SDS011;10471;42.736;23.346;2023-05-10T07:38:59;7.17;;;5.60;;
20623;SDS011;10471;42.736;23.346;2023-05-10T07:41:24;7.47;;;5.93;;
20623;SDS011;10471;42.736;23.346;2023-05-10T07:43:50;7.50;;;5.90;;
20623;SDS011;10471;42.736;23.346;2023-05-10T07:46:15;9.20;;;6.50;;
20623;SDS011;10471;42.736;23.346;2023-05-10T07:48:40;9.17;;;6.47;;
20623;SDS011;10471;42.736;23.346;2023-05-10T07:51:06;8.37;;;6.13;;
20623;SDS011;10471;42.736;23.346;2023-05-10T07:53:34;6.87;;;6.17;;
20623;SDS011;10471;42.736;23.346;2023-05-10T07:56:19;7.00;;;6.30;;
20623;SDS011;10471;42.736;23.346;2023-05-10T07:58:46;9.07;;;6.27;;
20623;SDS011;10471;42.736;23.346;2023-05-10T08:01:11;7.10;;;6.23;;
20623;SDS011;10471;42.736;23.346;2023-05-10T08:03:37;9.03;;;6.13;;
20623;SDS011;10471;42.736;23.346;2023-05-10T08:06:02;8.27;;;6.07;;
20623;SDS011;10471;42.736;23.346;2023-05-10T08:08:28;8.97;;;6.57;;
20623;SDS011;10471;42.736;23.346;2023-05-10T08:10:53;8.47;;;6.13;;
20623;SDS011;10471;42.736;23.346;2023-05-10T08:13:19;9.03;;;6.97;;
20623;SDS011;10471;42.736;23.346;2023-05-10T08:15:44;8.27;;;6.00;;
20623;SDS011;10471;42.736;23.346;2023-05-10T08:18:09;7.83;;;6.77;;
20623;SDS011;10471;42.736;23.346;2023-05-10T08:20:35;7.87;;;6.47;;
20623;SDS011;10471;42.736;23.346;2023-05-10T08:23:00;7.73;;;6.43;;
20623;SDS011;10471;42.736;23.346;2023-05-10T08:25:25;10.10;;;7.07;;
20623;SDS011;10471;42.736;23.346;2023-05-10T08:27:51;8.73;;;6.83;;
20623;SDS011;10471;42.736;23.346;2023-05-10T08:30:16;10.23;;;7.00;;
20623;SDS011;10471;42.736;23.346;2023-05-10T08:32:42;9.03;;;6.70;;
20623;SDS011;10471;42.736;23.346;2023-05-10T08:35:07;7.73;;;6.93;;
20623;SDS011;10471;42.736;23.346;2023-05-10T08:37:33;7.93;;;6.20;;
20623;SDS011;10471;42.736;23.346;2023-05-10T08:39:58;8.67;;;7.03;;
20623;SDS011;10471;42.736;23.346;2023-05-10T08:42:23;7.20;;;6.50;;
20623;SDS011;10471;42.736;23.346;2023-05-10T08:44:53;9.73;;;7.00;;
20623;SDS011;10471;42.736;23.346;2023-05-10T08:47:20;8.30;;;6.70;;
20623;SDS011;10471;42.736;23.346;2023-05-10T08:49:47;7.53;;;6.57;;
20623;SDS011;10471;42.736;23.346;2023-05-10T08:52:16;9.03;;;6.43;;
20623;SDS011;10471;42.736;23.346;2023-05-10T08:54:42;9.53;;;6.20;;
20623;SDS011;10471;42.736;23.346;2023-05-10T08:57:08;10.23;;;6.53;;
20623;SDS011;10471;42.736;23.346;2023-05-10T08:59:34;8.23;;;6.23;;
20623;SDS011;10471;42.736;23.346;2023-05-10T09:02:00;8.40;;;7.20;;
20623;SDS011;10471;42.736;23.346;2023-05-10T09:04:26;7.93;;;6.67;;
20623;SDS011;10471;42.736;23.346;2023-05-10T09:06:53;8.77;;;6.20;;
20623;SDS011;10471;42.736;23.346;2023-05-10T09:09:19;10.23;;;7.03;;
20623;SDS011;10471;42.736;23.346;2023-05-10T09:11:45;7.73;;;6.37;;
20623;SDS011;10471;42.736;23.346;2023-05-10T09:14:11;12.37;;;7.47;;
20623;SDS011;10471;42.736;23.346;2023-05-10T09:16:38;10.03;;;7.00;;
20623;SDS011;10471;42.736;23.346;2023-05-10T09:19:05;8.57;;;6.97;;
20623;SDS011;10471;42.736;23.346;2023-05-10T09:21:32;8.50;;;7.60;;
20623;SDS011;10471;42.736;23.346;2023-05-10T09:24:02;9.23;;;8.23;;
20623;SDS011;10471;42.736;23.346;2023-05-10T09:26:29;9.60;;;8.40;;
20623;SDS011;10471;42.736;23.346;2023-05-10T09:28:55;9.80;;;8.80;;
20623;SDS011;10471;42.736;23.346;2023-05-10T09:31:22;11.73;;;8.57;;
20623;SDS011;10471;42.736;23.346;2023-05-10T09:33:50;10.93;;;8.00;;
20623;SDS011;10471;42.736;23.346;2023-05-10T09:36:16;10.37;;;7.80;;
20623;SDS011;10471;42.736;23.346;2023-05-10T09:38:48;8.80;;;7.70;;
20623;SDS011;10471;42.736;23.346;2023-05-10T09:41:22;9.90;;;7.57;;
20623;SDS011;10471;42.736;23.346;2023-05-10T09:43:48;13.57;;;8.37;;
20623;SDS011;10471;42.736;23.346;2023-05-10T09:46:15;10.90;;;7.87;;
20623;SDS011;10471;42.736;23.346;2023-05-10T09:48:42;9.30;;;7.67;;
20623;SDS011;10471;42.736;23.346;2023-05-10T09:51:08;8.47;;;7.57;;
20623;SDS011;10471;42.736;23.346;2023-05-10T09:53:34;8.97;;;6.90;;
20623;SDS011;10471;42.736;23.346;2023-05-10T09:55:59;9.67;;;7.40;;
20623;SDS011;10471;42.736;23.346;2023-05-10T09:58:25;10.87;;;6.83;;
20623;SDS011;10471;42.736;23.346;2023-05-10T10:00:50;9.37;;;6.93;;
20623;SDS011;10471;42.736;23.346;2023-05-10T10:03:18;9.37;;;6.60;;
20623;SDS011;10471;42.736;23.346;2023-05-10T10:05:45;8.40;;;7.43;;
20623;SDS011;10471;42.736;23.346;2023-05-10T10:08:12;8.77;;;6.90;;
20623;SDS011;10471;42.736;23.346;2023-05-10T10:10:38;11.07;;;7.33;;
20623;SDS011;10471;42.736;23.346;2023-05-10T10:13:05;14.10;;;7.50;;
20623;SDS011;10471;42.736;23.346;2023-05-10T10:15:32;9.13;;;7.17;;
20623;SDS011;10471;42.736;23.346;2023-05-10T10:17:58;8.37;;;6.73;;
20623;SDS011;10471;42.736;23.346;2023-05-10T10:20:24;8.83;;;6.40;;
20623;SDS011;10471;42.736;23.346;2023-05-10T10:22:51;9.33;;;6.30;;
20623;SDS011;10471;42.736;23.346;2023-05-10T10:25:17;7.73;;;6.00;;
20623;SDS011;10471;42.736;23.346;2023-05-10T10:32:59;6.77;;;5.43;;
20623;SDS011;10471;42.736;23.346;2023-05-10T10:35:32;7.13;;;5.20;;
20623;SDS011;10471;42.736;23.346;2023-05-10T10:37:59;7.67;;;5.27;;
20623;SDS011;10471;42.736;23.346;2023-05-10T10:42:52;8.57;;;5.80;;
20623;SDS011;10471;42.736;23.346;2023-05-10T10:45:19;7.73;;;5.33;;
20623;SDS011;10471;42.736;23.346;2023-05-10T10:47:45;7.53;;;5.83;;
20623;SDS011;10471;42.736;23.346;2023-05-10T10:50:10;7.53;;;4.87;;
20623;SDS011;10471;42.736;23.346;2023-05-10T10:52:41;7.80;;;5.37;;
20623;SDS011;10471;42.736;23.346;2023-05-10T10:55:16;8.23;;;5.33;;
20623;SDS011;10471;42.736;23.346;2023-05-10T10:57:45;6.80;;;4.77;;
20623;SDS011;10471;42.736;23.346;2023-05-10T11:02:51;6.93;;;5.50;;
20623;SDS011;10471;42.736;23.346;2023-05-10T11:05:34;8.37;;;5.20;;
20623;SDS011;10471;42.736;23.346;2023-05-10T11:10:54;8.70;;;5.23;;
20623;SDS011;10471;42.736;23.346;2023-05-10T11:13:46;6.17;;;5.30;;
20623;SDS011;10471;42.736;23.346;2023-05-10T11:16:21;5.67;;;5.03;;
20623;SDS011;10471;42.736;23.346;2023-05-10T11:19:04;5.30;;;4.67;;
20623;SDS011;10471;42.736;23.346;2023-05-10T11:21:32;7.60;;;4.77;;
20623;SDS011;10471;42.736;23.346;2023-05-10T11:23:59;6.07;;;5.13;;
20623;SDS011;10471;42.736;23.346;2023-05-10T11:26:32;11.07;;;5.63;;
20623;SDS011;10471;42.736;23.346;2023-05-10T11:29:00;6.43;;;5.00;;
20623;SDS011;10471;42.736;23.346;2023-05-10T11:31:27;9.93;;;5.20;;
20623;SDS011;10471;42.736;23.346;2023-05-10T11:33:53;8.07;;;5.60;;
20623;SDS011;10471;42.736;23.346;2023-05-10T11:36:21;4.90;;;4.40;;
20623;SDS011;10471;42.736;23.346;2023-05-10T11:38:49;5.83;;;4.50;;
20623;SDS011;10471;42.736;23.346;2023-05-10T11:41:15;8.50;;;5.23;;
20623;SDS011;10471;42.736;23.346;2023-05-10T11:43:42;8.27;;;5.43;;
20623;SDS011;10471;42.736;23.346;2023-05-10T11:46:10;13.03;;;7.73;;
20623;SDS011;10471;42.736;23.346;2023-05-10T11:48:40;9.40;;;6.77;;
20623;SDS011;10471;42.736;23.346;2023-05-10T11:51:07;17.87;;;11.20;;
20623;SDS011;10471;42.736;23.346;2023-05-10T11:53:33;12.97;;;8.43;;
20623;SDS011;10471;42.736;23.346;2023-05-10T11:56:06;10.17;;;7.37;;
20623;SDS011;10471;42.736;23.346;2023-05-10T11:58:32;11.33;;;7.30;;
20623;SDS011;10471;42.736;23.346;2023-05-10T12:00:59;8.77;;;6.60;;
20623;SDS011;10471;42.736;23.346;2023-05-10T12:03:25;7.47;;;6.13;;
20623;SDS011;10471;42.736;23.346;2023-05-10T12:05:51;8.10;;;6.43;;
20623;SDS011;10471;42.736;23.346;2023-05-10T12:08:20;8.93;;;7.10;;
20623;SDS011;10471;42.736;23.346;2023-05-10T12:10:46;12.10;;;9.07;;
20623;SDS011;10471;42.736;23.346;2023-05-10T12:13:12;11.63;;;8.00;;
20623;SDS011;10471;42.736;23.346;2023-05-10T12:15:42;11.80;;;7.57;;
20623;SDS011;10471;42.736;23.346;2023-05-10T12:18:08;7.93;;;6.10;;
20623;SDS011;10471;42.736;23.346;2023-05-10T12:20:35;16.23;;;11.27;;
20623;SDS011;10471;42.736;23.346;2023-05-10T12:23:01;11.43;;;7.63;;
20623;SDS011;10471;42.736;23.346;2023-05-10T12:25:32;24.87;;;16.60;;
20623;SDS011;10471;42.736;23.346;2023-05-10T12:27:58;11.00;;;8.70;;
20623;SDS011;10471;42.736;23.346;2023-05-10T12:30:29;12.43;;;7.67;;
20623;SDS011;10471;42.736;23.346;2023-05-10T12:33:14;20.27;;;13.03;;
20623;SDS011;10471;42.736;23.346;2023-05-10T12:35:49;12.27;;;8.80;;
20623;SDS011;10471;42.736;23.346;2023-05-10T12:38:26;11.27;;;9.07;;
20623;SDS011;10471;42.736;23.346;2023-05-10T12:40:54;13.67;;;9.07;;
20623;SDS011;10471;42.736;23.346;2023-05-10T12:43:29;15.20;;;10.30;;
20623;SDS011;10471;42.736;23.346;2023-05-10T12:45:55;14.97;;;9.10;;
20623;SDS011;10471;42.736;23.346;2023-05-10T12:48:20;10.23;;;8.57;;
20623;SDS011;10471;42.736;23.346;2023-05-10T12:50:46;10.23;;;8.03;;
20623;SDS011;10471;42.736;23.346;2023-05-10T12:53:12;10.77;;;8.33;;
20623;SDS011;10471;42.736;23.346;2023-05-10T12:55:41;12.97;;;8.30;;
20623;SDS011;10471;42.736;23.346;2023-05-10T12:58:08;13.83;;;10.27;;
20623;SDS011;10471;42.736;23.346;2023-05-10T13:00:33;10.40;;;7.40;;
20623;SDS011;10471;42.736;23.346;2023-05-10T13:02:59;14.27;;;9.80;;
20623;SDS011;10471;42.736;23.346;2023-05-10T13:05:24;17.90;;;11.63;;
20623;SDS011;10471;42.736;23.346;2023-05-10T13:07:49;11.90;;;8.27;;
20623;SDS011;10471;42.736;23.346;2023-05-10T13:10:15;7.87;;;6.70;;
20623;SDS011;10471;42.736;23.346;2023-05-10T13:12:41;10.80;;;7.83;;
20623;SDS011;10471;42.736;23.346;2023-05-10T13:15:07;8.77;;;6.47;;
20623;SDS011;10471;42.736;23.346;2023-05-10T13:17:32;7.30;;;5.43;;
20623;SDS011;10471;42.736;23.346;2023-05-10T13:19:58;7.93;;;5.90;;
20623;SDS011;10471;42.736;23.346;2023-05-10T13:22:23;8.37;;;6.20;;
20623;SDS011;10471;42.736;23.346;2023-05-10T13:24:48;9.80;;;6.17;;
20623;SDS011;10471;42.736;23.346;2023-05-10T13:27:14;10.27;;;6.80;;
20623;SDS011;10471;42.736;23.346;2023-05-10T13:29:40;7.43;;;6.60;;
20623;SDS011;10471;42.736;23.346;2023-05-10T13:32:05;8.27;;;6.63;;
20623;SDS011;10471;42.736;23.346;2023-05-10T13:34:31;8.20;;;5.90;;
20623;SDS011;10471;42.736;23.346;2023-05-10T13:36:56;9.13;;;6.53;;
20623;SDS011;10471;42.736;23.346;2023-05-10T13:39:22;8.80;;;6.80;;
20623;SDS011;10471;42.736;23.346;2023-05-10T13:41:47;9.77;;;6.73;;
20623;SDS011;10471;42.736;23.346;2023-05-10T13:44:13;8.07;;;6.80;;
20623;SDS011;10471;42.736;23.346;2023-05-10T13:46:40;11.70;;;6.43;;
20623;SDS011;10471;42.736;23.346;2023-05-10T13:49:05;10.87;;;7.40;;
20623;SDS011;10471;42.736;23.346;2023-05-10T13:51:31;11.40;;;6.97;;
20623;SDS011;10471;42.736;23.346;2023-05-10T13:53:57;9.60;;;7.50;;
20623;SDS011;10471;42.736;23.346;2023-05-10T13:56:38;10.63;;;6.53;;
20623;SDS011;10471;42.736;23.346;2023-05-10T13:59:04;9.67;;;6.90;;
20623;SDS011;10471;42.736;23.346;2023-05-10T14:01:29;9.27;;;7.00;;
20623;SDS011;10471;42.736;23.346;2023-05-10T14:03:55;10.93;;;7.37;;
20623;SDS011;10471;42.736;23.346;2023-05-10T14:06:20;10.50;;;7.37;;
20623;SDS011;10471;42.736;23.346;2023-05-10T14:08:46;13.17;;;10.10;;
20623;SDS011;10471;42.736;23.346;2023-05-10T14:11:12;10.90;;;8.10;;
20623;SDS011;10471;42.736;23.346;2023-05-10T14:13:37;15.83;;;9.43;;
20623;SDS011;10471;42.736;23.346;2023-05-10T14:16:03;13.53;;;9.33;;
20623;SDS011;10471;42.736;23.346;2023-05-10T14:18:28;11.47;;;7.73;;
20623;SDS011;10471;42.736;23.346;2023-05-10T14:20:54;9.80;;;7.23;;
20623;SDS011;10471;42.736;23.346;2023-05-10T14:23:21;9.53;;;7.53;;
20623;SDS011;10471;42.736;23.346;2023-05-10T14:25:49;14.60;;;8.57;;
20623;SDS011;10471;42.736;23.346;2023-05-10T14:28:15;9.30;;;7.30;;
20623;SDS011;10471;42.736;23.346;2023-05-10T14:30:42;12.30;;;9.83;;
20623;SDS011;10471;42.736;23.346;2023-05-10T14:33:07;14.27;;;8.53;;
20623;SDS011;10471;42.736;23.346;2023-05-10T14:35:32;15.90;;;9.83;;
20623;SDS011;10471;42.736;23.346;2023-05-10T14:37:58;12.10;;;8.43;;
20623;SDS011;10471;42.736;23.346;2023-05-10T14:40:23;11.10;;;7.20;;
20623;SDS011;10471;42.736;23.346;2023-05-10T14:42:49;18.77;;;12.07;;
20623;SDS011;10471;42.736;23.346;2023-05-10T14:45:15;13.43;;;8.77;;
20623;SDS011;10471;42.736;23.346;2023-05-10T14:47:40;12.33;;;8.57;;
20623;SDS011;10471;42.736;23.346;2023-05-10T14:50:06;12.03;;;8.00;;
20623;SDS011;10471;42.736;23.346;2023-05-10T14:55:53;10.23;;;7.73;;